createdAt,value
2019-04-26T00:01:15.973Z,3.77
2019-04-26T00:03:46.046Z,1.95
2019-04-26T00:06:15.067Z,2.20
2019-04-26T00:08:46.553Z,1.65
2019-04-26T00:11:50.002Z,2.87
2019-04-26T00:14:37.141Z,2.20
2019-04-26T00:17:24.906Z,2.77
2019-04-26T00:19:54.091Z,2.70
2019-04-26T00:22:23.056Z,3.05
2019-04-26T00:24:51.755Z,1.80
2019-04-26T00:27:21.275Z,2.40
2019-04-26T00:29:50.154Z,2.72
2019-04-26T00:32:19.224Z,2.20
2019-04-26T00:34:47.945Z,2.98
2019-04-26T00:37:16.666Z,2.70
2019-04-26T00:39:45.427Z,2.20
2019-04-26T00:42:14.692Z,2.10
2019-04-26T00:44:43.515Z,2.12
2019-04-26T00:47:14.219Z,2.10
2019-04-26T00:49:44.221Z,2.95
2019-04-26T00:52:14.082Z,1.95
2019-04-26T00:54:43.315Z,2.25
2019-04-26T00:57:12.016Z,2.10
2019-04-26T00:59:40.750Z,2.55
2019-04-26T01:02:18.601Z,2.27
2019-04-26T01:04:47.534Z,1.55
2019-04-26T01:07:16.984Z,1.82
2019-04-26T01:09:45.766Z,1.82
2019-04-26T01:12:15.443Z,2.42
2019-04-26T01:14:44.918Z,2.67
2019-04-26T01:17:13.610Z,3.42
2019-04-26T01:19:42.322Z,2.12
2019-04-26T01:22:15.011Z,1.77
2019-04-26T01:24:43.806Z,1.35
2019-04-26T01:27:12.612Z,1.65
2019-04-26T01:29:41.311Z,1.67
2019-04-26T01:32:11.126Z,1.47
2019-04-26T01:34:40.462Z,1.95
2019-04-26T01:37:09.226Z,1.62
2019-04-26T01:39:40.070Z,2.33
2019-04-26T01:42:18.508Z,2.72
2019-04-26T01:44:59.102Z,1.70
2019-04-26T01:47:28.404Z,2.05
2019-04-26T01:49:57.229Z,1.87
2019-04-26T01:52:27.652Z,2.33
2019-04-26T01:54:56.502Z,1.65
2019-04-26T01:57:25.370Z,1.75
2019-04-26T01:59:55.863Z,1.27
2019-04-26T02:02:41.366Z,2.00
2019-04-26T02:05:14.898Z,1.75
2019-04-26T02:07:43.594Z,1.20
2019-04-26T02:10:16.978Z,1.80
2019-04-26T02:12:47.350Z,1.47
2019-04-26T02:15:18.138Z,1.75
2019-04-26T02:17:47.645Z,2.17
2019-04-26T02:20:36.242Z,2.27
2019-04-26T02:23:30.077Z,1.47
2019-04-26T02:26:17.931Z,1.22
2019-04-26T02:28:46.990Z,1.75
2019-04-26T02:31:15.787Z,1.90
2019-04-26T02:33:44.481Z,1.22
2019-04-26T02:36:13.193Z,0.85
2019-04-26T02:38:41.891Z,1.00
2019-04-26T02:41:10.660Z,1.65
2019-04-26T02:43:39.395Z,2.35
2019-04-26T02:46:20.241Z,1.50
2019-04-26T02:49:20.837Z,1.50
2019-04-26T02:52:16.235Z,1.37
2019-04-26T02:54:52.482Z,3.42
2019-04-26T02:57:38.898Z,1.40
2019-04-26T03:00:08.870Z,1.87
2019-04-26T03:02:40.199Z,2.77
2019-04-26T03:05:10.719Z,1.57
2019-04-26T03:08:01.934Z,1.92
2019-04-26T03:10:40.418Z,1.07
2019-04-26T03:13:13.171Z,2.47
2019-04-26T03:16:11.422Z,1.17
2019-04-26T03:19:13.145Z,1.55
2019-04-26T03:22:01.227Z,1.75
2019-04-26T03:24:41.170Z,2.37
2019-04-26T03:27:46.166Z,1.60
2019-04-26T03:30:51.283Z,1.27
2019-04-26T03:33:52.194Z,1.95
2019-04-26T03:36:52.355Z,1.35
2019-04-26T03:39:27.472Z,1.32
2019-04-26T03:42:22.830Z,1.15
2019-04-26T03:45:33.014Z,1.40
2019-04-26T03:48:46.742Z,1.07
2019-04-26T03:51:37.542Z,1.25
2019-04-26T03:54:11.254Z,1.80
2019-04-26T03:57:15.416Z,2.17
2019-04-26T04:00:33.292Z,1.42
2019-04-26T04:03:27.477Z,0.93
2019-04-26T04:05:57.715Z,1.20
2019-04-26T04:08:38.502Z,1.07
2019-04-26T04:11:11.628Z,1.20
2019-04-26T04:13:55.049Z,1.65
2019-04-26T04:16:32.037Z,2.17
2019-04-26T04:19:09.645Z,4.80
2019-04-26T04:21:53.875Z,3.20
2019-04-26T04:24:39.050Z,4.25
2019-04-26T04:27:16.395Z,3.83
2019-04-26T04:30:26.543Z,3.90
2019-04-26T04:33:24.899Z,3.12
2019-04-26T04:35:56.447Z,2.72
2019-04-26T04:38:37.380Z,4.12
2019-04-26T04:41:18.449Z,2.33
2019-04-26T04:43:57.647Z,7.10
2019-04-26T04:47:00.145Z,5.03
2019-04-26T04:50:24.444Z,2.25
2019-04-26T04:53:00.032Z,2.80
2019-04-26T04:55:42.867Z,2.87
2019-04-26T04:58:14.091Z,4.70
2019-04-26T05:01:51.210Z,1.85
2019-04-26T05:04:29.906Z,2.20
2019-04-26T05:07:31.520Z,4.12
2019-04-26T05:10:12.962Z,3.25
2019-04-26T05:12:54.349Z,3.52
2019-04-26T05:15:41.490Z,1.95
2019-04-26T05:18:48.508Z,3.10
2019-04-26T05:21:27.278Z,2.05
2019-04-26T05:24:07.897Z,3.67
2019-04-26T05:27:25.051Z,4.25
2019-04-26T05:30:37.667Z,3.27
2019-04-26T05:33:42.450Z,10.78
2019-04-26T05:36:24.293Z,8.15
2019-04-26T05:39:07.808Z,4.80
2019-04-26T05:42:20.663Z,11.30
2019-04-26T05:45:40.628Z,5.67
2019-04-26T05:48:31.854Z,4.50
2019-04-26T05:51:36.362Z,7.80
2019-04-26T05:54:56.656Z,6.67
2019-04-26T05:57:40.950Z,8.70
2019-04-26T06:00:47.063Z,8.98
2019-04-26T06:04:07.538Z,12.13
2019-04-26T06:06:53.826Z,4.12
2019-04-26T06:10:03.094Z,5.95
2019-04-26T06:12:43.402Z,2.60
2019-04-26T06:15:44.494Z,5.37
2019-04-26T06:18:59.663Z,7.93
2019-04-26T06:21:36.480Z,3.45
2019-04-26T06:24:30.289Z,3.80
2019-04-26T06:27:51.945Z,4.67
2019-04-26T06:30:27.133Z,2.83
2019-04-26T06:33:23.118Z,5.22
2019-04-26T06:35:53.201Z,2.98
2019-04-26T06:39:26.350Z,3.27
2019-04-26T06:45:32.405Z,5.58
2019-04-26T06:48:07.353Z,18.45
2019-04-26T06:50:41.298Z,3.35
2019-04-26T06:53:22.879Z,4.08
2019-04-26T06:56:07.498Z,3.45
2019-04-26T06:58:50.030Z,4.35
2019-04-26T07:01:29.857Z,1.10
2019-04-26T07:04:17.426Z,6.83
2019-04-26T07:07:13.322Z,4.97
2019-04-26T07:10:02.248Z,7.65
2019-04-26T07:12:36.957Z,2.77
2019-04-26T07:15:31.645Z,3.85
2019-04-26T07:18:20.806Z,1.72
2019-04-26T07:21:16.444Z,3.33
2019-04-26T07:24:26.045Z,2.58
2019-04-26T07:27:44.874Z,3.92
2019-04-26T07:30:21.948Z,4.10
2019-04-26T07:33:32.274Z,2.55
2019-04-26T07:36:32.710Z,4.08
2019-04-26T07:39:20.318Z,3.72
2019-04-26T07:42:43.362Z,3.05
2019-04-26T07:45:38.382Z,3.42
2019-04-26T07:48:40.394Z,1.98
2019-04-26T07:54:24.114Z,2.35
2019-04-26T07:57:49.486Z,16.35
2019-04-26T08:00:20.681Z,3.85
2019-04-26T08:03:13.031Z,4.47
2019-04-26T08:05:52.521Z,3.05
2019-04-26T08:08:21.890Z,1.75
2019-04-26T08:11:01.974Z,5.03
2019-04-26T08:13:30.691Z,2.90
2019-04-26T08:16:20.658Z,4.67
2019-04-26T08:18:55.624Z,5.05
2019-04-26T08:21:31.896Z,4.10
2019-04-26T08:24:07.993Z,3.52
2019-04-26T08:26:37.394Z,4.33
2019-04-26T08:29:06.706Z,5.28
2019-04-26T08:31:36.161Z,6.60
2019-04-26T08:34:07.491Z,8.65
2019-04-26T08:36:43.453Z,6.12
2019-04-26T08:39:18.593Z,5.37
2019-04-26T08:41:48.969Z,3.58
2019-04-26T08:45:04.395Z,6.97
2019-04-26T08:47:45.910Z,5.62
2019-04-26T08:50:31.682Z,4.42
2019-04-26T08:53:09.679Z,4.33
2019-04-26T08:55:38.402Z,5.62
2019-04-26T08:58:09.044Z,3.35
2019-04-26T09:00:50.486Z,3.90
2019-04-26T09:03:41.262Z,3.77
2019-04-26T09:06:35.046Z,4.28
2019-04-26T09:09:14.324Z,4.58
2019-04-26T09:11:42.504Z,5.12
2019-04-26T09:14:12.439Z,4.00
2019-04-26T09:16:50.087Z,4.95
2019-04-26T09:19:14.178Z,3.10
2019-04-26T09:22:12.432Z,3.72
2019-04-26T09:24:38.145Z,3.27
2019-04-26T09:27:17.056Z,4.75
2019-04-26T09:30:10.878Z,5.15
2019-04-26T09:32:46.738Z,3.85
2019-04-26T09:35:16.328Z,4.62
2019-04-26T09:37:46.518Z,4.92
2019-04-26T09:40:21.510Z,6.00
2019-04-26T09:43:10.503Z,6.85
2019-04-26T09:46:06.329Z,5.80
2019-04-26T09:48:56.962Z,12.58
2019-04-26T09:51:25.827Z,7.60
2019-04-26T09:53:54.595Z,3.62
2019-04-26T09:56:24.234Z,8.15
2019-04-26T09:58:52.926Z,6.30
2019-04-26T10:01:24.121Z,6.00
2019-04-26T10:03:52.154Z,4.70
2019-04-26T10:06:20.899Z,4.40
2019-04-26T10:08:52.324Z,7.15
2019-04-26T10:11:22.373Z,10.40
2019-04-26T10:14:01.855Z,15.03
2019-04-26T10:16:48.717Z,19.42
2019-04-26T10:19:31.790Z,24.90
2019-04-26T10:22:00.651Z,21.27
2019-04-26T10:24:29.358Z,19.42
2019-04-26T10:26:59.293Z,16.27
2019-04-26T10:29:28.241Z,17.87
2019-04-26T10:31:57.051Z,17.07
2019-04-26T10:34:25.790Z,14.45
2019-04-26T10:36:56.830Z,11.85
2019-04-26T10:39:28.567Z,14.65
2019-04-26T10:41:55.667Z,17.17
2019-04-26T10:44:24.470Z,13.75
2019-04-26T10:46:55.686Z,11.48
2019-04-26T10:49:43.892Z,13.40
2019-04-26T10:52:18.850Z,13.93
2019-04-26T10:54:51.545Z,14.38
2019-04-26T10:57:27.507Z,9.63
2019-04-26T10:59:58.121Z,10.00
2019-04-26T11:02:27.021Z,17.95
2019-04-26T11:04:55.721Z,11.75
2019-04-26T11:07:24.495Z,11.28
2019-04-26T11:09:53.190Z,10.35
2019-04-26T11:12:22.163Z,13.03
2019-04-26T11:14:53.272Z,11.40
2019-04-26T11:17:23.362Z,10.60
2019-04-26T11:19:52.055Z,12.82
2019-04-26T11:22:28.903Z,10.50
2019-04-26T11:24:53.782Z,10.80
2019-04-26T11:27:21.607Z,11.95
2019-04-26T11:29:53.913Z,9.00
2019-04-26T11:32:20.778Z,8.40
2019-04-26T11:34:49.500Z,8.38
2019-04-26T11:37:19.438Z,9.80
2019-04-26T11:39:48.252Z,7.65
2019-04-26T11:42:17.015Z,10.68
2019-04-26T11:44:45.751Z,6.20
2019-04-26T11:47:14.720Z,8.28
2019-04-26T11:49:43.445Z,8.48
2019-04-26T11:52:12.260Z,4.65
2019-04-26T11:54:40.947Z,5.83
2019-04-26T11:57:12.084Z,6.47
2019-04-26T11:59:40.333Z,6.40
2019-04-26T12:02:12.255Z,8.13
2019-04-26T12:05:13.314Z,4.67
2019-04-26T12:07:46.146Z,7.55
2019-04-26T12:10:14.835Z,4.55
2019-04-26T12:12:47.115Z,12.40
2019-04-26T12:15:13.976Z,5.03
2019-04-26T12:17:42.672Z,6.78
2019-04-26T12:20:11.394Z,5.10
2019-04-26T12:22:43.252Z,4.37
2019-04-26T12:25:10.540Z,7.83
2019-04-26T12:27:39.322Z,11.28
2019-04-26T12:30:08.133Z,9.00
2019-04-26T12:32:36.831Z,6.28
2019-04-26T12:35:05.623Z,4.85
2019-04-26T12:37:34.384Z,4.90
2019-04-26T12:40:07.284Z,5.00
2019-04-26T12:42:34.322Z,6.65
2019-04-26T12:45:40.255Z,6.45
2019-04-26T12:48:12.377Z,6.80
2019-04-26T12:50:41.102Z,7.47
2019-04-26T12:53:09.791Z,3.50
2019-04-26T12:55:38.527Z,5.10
2019-04-26T12:58:11.042Z,5.30
2019-04-26T13:00:39.119Z,3.25
2019-04-26T13:03:19.662Z,6.28
2019-04-26T13:05:38.755Z,6.83
2019-04-26T13:08:07.541Z,5.40
2019-04-26T13:10:55.398Z,3.67
2019-04-26T13:13:31.473Z,5.28
2019-04-26T13:16:21.645Z,7.22
2019-04-26T13:18:50.817Z,10.08
2019-04-26T13:21:19.567Z,5.83
2019-04-26T13:23:48.381Z,4.62
2019-04-26T13:26:17.511Z,7.40
2019-04-26T13:28:46.237Z,5.40
2019-04-26T13:31:15.808Z,7.92
2019-04-26T13:33:46.823Z,7.42
2019-04-26T13:36:16.693Z,4.37
2019-04-26T13:38:45.882Z,5.90
2019-04-26T13:41:14.670Z,10.90
2019-04-26T13:43:44.774Z,5.30
2019-04-26T13:46:31.703Z,3.30
2019-04-26T13:49:22.550Z,3.70
2019-04-26T13:51:51.266Z,3.85
2019-04-26T13:54:21.259Z,4.37
2019-04-26T13:56:50.422Z,4.87
2019-04-26T13:59:19.133Z,4.47
2019-04-26T14:01:47.850Z,2.90
2019-04-26T14:04:16.595Z,3.70
2019-04-26T14:06:47.670Z,6.15
2019-04-26T14:09:16.644Z,5.47
2019-04-26T14:11:45.343Z,10.00
2019-04-26T14:14:14.050Z,5.55
2019-04-26T14:16:42.934Z,3.58
2019-04-26T14:19:15.465Z,1.45
2019-04-26T14:21:42.154Z,3.52
2019-04-26T14:24:29.324Z,4.37
2019-04-26T14:27:01.286Z,3.33
2019-04-26T14:29:32.503Z,5.62
2019-04-26T14:32:00.454Z,5.25
2019-04-26T14:34:31.269Z,3.22
2019-04-26T14:37:06.428Z,4.83
2019-04-26T14:39:49.724Z,2.27
2019-04-26T14:42:01.203Z,4.00
2019-04-26T14:44:31.225Z,6.00
2019-04-26T14:47:13.204Z,5.80
2019-04-26T14:49:39.022Z,6.75
2019-04-26T14:52:01.443Z,9.50
2019-04-26T14:54:30.141Z,4.35
2019-04-26T14:56:59.807Z,4.20
2019-04-26T14:59:52.857Z,4.00
2019-04-26T15:02:41.640Z,6.95
2019-04-26T15:05:24.770Z,6.12
2019-04-26T15:07:53.918Z,6.72
2019-04-26T15:10:24.528Z,6.53
2019-04-26T15:13:05.827Z,5.12
2019-04-26T15:15:26.906Z,5.12
2019-04-26T15:17:59.416Z,6.15
2019-04-26T15:20:24.795Z,6.25
2019-04-26T15:22:53.625Z,6.72
2019-04-26T15:25:22.514Z,5.85
2019-04-26T15:27:52.462Z,6.92
2019-04-26T15:30:22.046Z,6.85
2019-04-26T15:32:52.903Z,4.55
2019-04-26T15:35:24.494Z,5.72
2019-04-26T15:37:57.496Z,3.62
2019-04-26T15:41:05.558Z,12.60
2019-04-26T15:43:55.262Z,4.45
2019-04-26T15:46:48.512Z,2.42
2019-04-26T15:49:40.054Z,5.08
2019-04-26T15:52:09.170Z,8.33
2019-04-26T15:54:38.335Z,4.67
2019-04-26T15:57:07.030Z,11.85
2019-04-26T15:59:37.346Z,4.95
2019-04-26T16:02:06.714Z,10.13
2019-04-26T16:04:35.634Z,14.85
2019-04-26T16:07:04.624Z,7.58
2019-04-26T16:09:34.753Z,12.23
2019-04-26T16:12:03.792Z,10.45
2019-04-26T16:14:36.477Z,8.80
2019-04-26T16:17:06.567Z,7.00
2019-04-26T16:19:34.147Z,5.97
2019-04-26T16:22:03.080Z,10.88
2019-04-26T16:24:34.116Z,18.98
2019-04-26T16:27:02.723Z,12.93
2019-04-26T16:29:38.698Z,13.28
2019-04-26T16:32:26.465Z,8.48
2019-04-26T16:34:55.251Z,7.00
2019-04-26T16:37:24.030Z,18.73
2019-04-26T16:39:52.721Z,11.35
2019-04-26T16:42:23.431Z,9.70
2019-04-26T16:44:54.905Z,9.57
2019-04-26T16:47:23.387Z,5.65
2019-04-26T16:49:54.801Z,7.17
2019-04-26T16:52:23.921Z,8.30
2019-04-26T16:54:53.100Z,7.05
2019-04-26T16:57:24.334Z,11.65
2019-04-26T16:59:57.585Z,8.98
2019-04-26T17:02:26.423Z,9.43
2019-04-26T17:04:53.506Z,5.90
2019-04-26T17:07:27.391Z,11.57
2019-04-26T17:09:59.505Z,14.55
2019-04-26T17:12:24.737Z,6.78
2019-04-26T17:14:53.551Z,10.70
2019-04-26T17:17:22.429Z,9.15
2019-04-26T17:19:52.216Z,12.35
2019-04-26T17:22:41.943Z,14.20
2019-04-26T17:25:12.665Z,12.88
2019-04-26T17:27:45.884Z,6.62
2019-04-26T17:30:14.495Z,8.40
2019-04-26T17:32:43.775Z,7.05
2019-04-26T17:35:12.614Z,8.48
2019-04-26T17:37:41.327Z,8.33
2019-04-26T17:40:10.126Z,7.42
2019-04-26T17:42:40.700Z,9.00
2019-04-26T17:45:10.801Z,10.78
2019-04-26T17:47:41.810Z,9.93
2019-04-26T17:50:10.975Z,5.70
2019-04-26T17:52:40.912Z,10.70
2019-04-26T17:55:11.958Z,20.48
2019-04-26T17:57:47.602Z,22.73
2019-04-26T18:00:15.774Z,13.62
2019-04-26T18:02:48.000Z,13.32
2019-04-26T18:05:15.170Z,11.78
2019-04-26T18:07:50.412Z,10.38
2019-04-26T18:10:14.374Z,9.95
2019-04-26T18:12:45.098Z,11.18
2019-04-26T18:15:17.265Z,9.50
2019-04-26T18:18:04.046Z,8.48
2019-04-26T18:20:50.337Z,11.60
2019-04-26T18:23:19.122Z,7.42
2019-04-26T18:25:47.822Z,14.13
2019-04-26T18:28:16.578Z,9.40
2019-04-26T18:30:47.604Z,9.80
2019-04-26T18:33:17.669Z,10.35
2019-04-26T18:35:49.322Z,7.67
2019-04-26T18:38:16.778Z,10.18
2019-04-26T18:40:59.937Z,6.12
2019-04-26T18:43:17.289Z,9.18
2019-04-26T18:45:48.155Z,6.60
2019-04-26T18:48:16.854Z,7.12
2019-04-26T18:50:46.036Z,10.28
2019-04-26T18:53:36.565Z,6.40
2019-04-26T18:56:04.344Z,7.65
2019-04-26T18:58:34.784Z,11.40
2019-04-26T19:01:05.612Z,10.38
2019-04-26T19:03:34.611Z,7.10
2019-04-26T19:06:05.556Z,5.75
2019-04-26T19:08:45.854Z,7.92
2019-04-26T19:11:07.657Z,8.20
2019-04-26T19:13:59.802Z,4.97
2019-04-26T19:16:38.874Z,6.50
2019-04-26T19:19:23.021Z,7.30
2019-04-26T19:21:56.602Z,7.12
2019-04-26T19:24:25.319Z,5.20
2019-04-26T19:26:54.018Z,5.22
2019-04-26T19:29:30.221Z,4.15
2019-04-26T19:31:56.549Z,7.92
2019-04-26T19:34:26.007Z,6.87
2019-04-26T19:36:56.348Z,10.63
2019-04-26T19:39:32.064Z,5.67
2019-04-26T19:41:57.620Z,4.20
2019-04-26T19:44:25.506Z,5.00
2019-04-26T19:47:19.170Z,5.87
2019-04-26T19:50:09.488Z,3.92
2019-04-26T19:52:51.721Z,3.20
2019-04-26T19:55:54.980Z,6.60
2019-04-26T19:58:26.418Z,4.22
2019-04-26T20:00:55.178Z,5.47
2019-04-26T20:03:23.875Z,4.03
2019-04-26T20:05:52.935Z,6.47
2019-04-26T20:08:23.455Z,4.87
2019-04-26T20:10:52.370Z,5.08
2019-04-26T20:13:22.053Z,5.53
2019-04-26T20:15:51.406Z,5.83
2019-04-26T20:18:21.487Z,6.03
2019-04-26T20:20:52.026Z,5.37
2019-04-26T20:23:22.711Z,5.60
2019-04-26T20:25:52.969Z,5.25
2019-04-26T20:28:24.418Z,5.30
2019-04-26T20:31:07.100Z,6.72
2019-04-26T20:33:31.572Z,4.90
2019-04-26T20:36:01.955Z,5.30
2019-04-26T20:38:35.893Z,6.22
2019-04-26T20:41:01.982Z,3.75
2019-04-26T20:43:32.105Z,12.05
2019-04-26T20:46:12.533Z,4.58
2019-04-26T20:48:33.101Z,4.12
2019-04-26T20:51:02.432Z,3.95
2019-04-26T20:53:40.005Z,3.03
2019-04-26T20:56:09.035Z,8.78
2019-04-26T20:58:37.529Z,4.05
2019-04-26T21:01:12.504Z,4.72
2019-04-26T21:03:42.279Z,3.77
2019-04-26T21:06:09.097Z,2.30
2019-04-26T21:08:37.850Z,3.55
2019-04-26T21:11:06.662Z,2.95
2019-04-26T21:13:35.378Z,4.60
2019-04-26T21:16:10.655Z,3.95
2019-04-26T21:18:40.221Z,3.80
2019-04-26T21:21:05.832Z,2.72
2019-04-26T21:23:39.846Z,3.70
2019-04-26T21:26:28.997Z,3.47
2019-04-26T21:29:20.513Z,3.05
2019-04-26T21:32:24.595Z,3.15
2019-04-26T21:34:54.550Z,3.08
2019-04-26T21:37:49.549Z,5.30
2019-04-26T21:40:26.259Z,2.98
2019-04-26T21:42:59.339Z,1.87
2019-04-26T21:45:29.860Z,3.37
2019-04-26T21:47:56.202Z,1.82
2019-04-26T21:50:24.927Z,3.45
2019-04-26T21:52:54.130Z,2.40
2019-04-26T21:55:27.765Z,2.85
2019-04-26T21:57:53.844Z,3.80
2019-04-26T22:00:43.697Z,3.47
2019-04-26T22:03:15.941Z,2.70
2019-04-26T22:05:43.941Z,2.77
2019-04-26T22:08:17.433Z,2.02
2019-04-26T22:10:46.919Z,2.27
2019-04-26T22:13:24.770Z,2.70
2019-04-26T22:16:07.867Z,3.72
2019-04-26T22:18:50.582Z,2.72
2019-04-26T22:21:29.955Z,1.62
2019-04-26T22:24:05.958Z,2.90
2019-04-26T22:26:38.059Z,3.70
2019-04-26T22:29:08.057Z,3.22
2019-04-26T22:31:37.955Z,3.05
2019-04-26T22:34:08.469Z,2.43
2019-04-26T22:36:36.833Z,3.70
2019-04-26T22:39:09.446Z,2.45
2019-04-26T22:41:38.182Z,2.42
2019-04-26T22:44:13.794Z,1.60
2019-04-26T22:47:10.831Z,3.50
2019-04-26T22:49:41.738Z,1.95
2019-04-26T22:52:11.235Z,1.85
2019-04-26T22:54:42.793Z,1.80
2019-04-26T22:57:13.123Z,1.72
2019-04-26T22:59:43.288Z,2.30
2019-04-26T23:02:31.182Z,2.40
2019-04-26T23:05:00.553Z,2.02
2019-04-26T23:07:33.245Z,1.90
2019-04-26T23:10:04.105Z,2.20
2019-04-26T23:12:51.658Z,2.25
2019-04-26T23:15:31.122Z,1.60
2019-04-26T23:18:27.934Z,1.70
2019-04-26T23:20:59.189Z,1.82
2019-04-26T23:23:27.885Z,2.65
2019-04-26T23:25:56.602Z,1.72
2019-04-26T23:28:27.688Z,2.15
2019-04-26T23:30:56.468Z,2.40
2019-04-26T23:33:25.170Z,1.98
2019-04-26T23:35:53.866Z,1.98
2019-04-26T23:38:23.490Z,1.30
2019-04-26T23:40:52.346Z,2.15
2019-04-26T23:43:24.038Z,3.22
2019-04-26T23:45:53.046Z,3.00
2019-04-26T23:48:21.906Z,1.85
2019-04-26T23:50:50.641Z,1.42
2019-04-26T23:53:20.338Z,1.75
2019-04-26T23:55:49.977Z,3.42
2019-04-26T23:58:18.679Z,1.90
